Time;durP1;ratioP1;P1;durP2;ratioP2;P2;SDS_P1;SDS_P2;PMS_P1;PMS_P2;Temp;Humidity;BMP_temperature;BMP_pressure;BME280_temperature;BME280_humidity;BME280_pressure;Samples;Min_cycle;Max_cycle;Signal;HPM_P1;HPM_P2
2021/08/05 03:20:02;;;;;;;;;;;;;;;5.78;95.68;99092.41;5019251;23;20033;-86
2021/08/05 03:22:28;;;;;;;;;;;;;;;5.76;95.71;99083.69;5020356;28;19992;-86
2021/08/05 03:24:53;;;;;;;;;;;;;;;5.71;95.07;99088.25;5020970;28;19921;-86
2021/08/05 03:27:19;;;;;;;;;;;;;;;5.74;96.82;99086.38;5020780;28;19913;-86
2021/08/05 03:29:44;;;;;;;;;;;;;;;5.86;99.77;99085.09;5020927;28;19921;-87
2021/08/05 03:32:09;;;;;;;;;;;;;;;6.07;100.00;99087.94;5020709;28;19933;-88
2021/08/05 03:34:34;;;;;;;;;;;;;;;6.25;100.00;99081.13;5020680;28;20378;-87
2021/08/05 03:37:00;;;;;;;;;;;;;;;6.32;100.00;99080.88;5021737;28;19922;-87
2021/08/05 03:39:25;;;;;;;;;;;;;;;6.37;100.00;99080.69;5021094;28;19928;-88
2021/08/05 03:41:50;;;;;;;;;;;;;;;6.38;100.00;99082.41;5021141;28;19921;-87
2021/08/05 03:44:16;;;;;;;;;;;;;;;6.22;100.00;99078.63;5020977;28;19932;-86
2021/08/05 03:46:41;;;;;;;;;;;;;;;6.33;100.00;99073.81;5020942;28;19921;-87
2021/08/05 03:49:06;;;;;;;;;;;;;;;6.31;100.00;99078.28;5020539;28;20021;-89
2021/08/05 03:51:32;;;;;;;;;;;;;;;6.29;100.00;99078.34;5019430;28;19953;-86
2021/08/05 03:53:57;;;;;;;;;;;;;;;6.20;100.00;99078.66;5018694;28;19991;-85
2021/08/05 03:56:23;;;;;;;;;;;;;;;6.32;100.00;99072.97;5019672;28;19917;-86
2021/08/05 03:58:48;;;;;;;;;;;;;;;6.53;100.00;99075.72;5020632;28;19929;-87
2021/08/05 04:01:13;;;;;;;;;;;;;;;6.83;100.00;99083.34;5019999;28;19917;-86
2021/08/05 04:03:39;;;;;;;;;;;;;;;6.95;100.00;99069.72;5019585;28;19925;-86
2021/08/05 04:06:04;;;;;;;;;;;;;;;7.27;100.00;99078.09;5020174;28;20004;-87
2021/08/05 04:08:29;;;;;;;;;;;;;;;7.51;100.00;99070.09;5020230;28;19924;-85
2021/08/05 04:10:55;;;;;;;;;;;;;;;7.53;100.00;99077.03;5019630;28;19922;-85
2021/08/05 04:13:20;;;;;;;;;;;;;;;7.31;100.00;99079.72;5018883;28;19917;-85
2021/08/05 04:15:45;;;;;;;;;;;;;;;7.15;100.00;99073.31;5019891;28;19921;-85
2021/08/05 04:18:10;;;;;;;;;;;;;;;6.90;100.00;99069.03;5019256;28;19929;-85
2021/08/05 04:20:36;;;;;;;;;;;;;;;6.95;100.00;99059.16;5020213;28;19936;-86
2021/08/05 04:23:02;;;;;;;;;;;;;;;6.82;100.00;99069.34;5019778;28;19925;-85
2021/08/05 04:25:27;;;;;;;;;;;;;;;6.77;100.00;99067.81;5020066;28;19921;-86
2021/08/05 04:27:52;;;;;;;;;;;;;;;6.78;100.00;99080.91;5019848;28;20023;-86
2021/08/05 04:30:18;;;;;;;;;;;;;;;6.57;100.00;99079.94;5020018;28;20012;-85
2021/08/05 04:32:43;;;;;;;;;;;;;;;6.65;100.00;99077.03;5018863;28;19921;-86
2021/08/05 04:35:09;;;;;;;;;;;;;;;6.59;100.00;99075.50;5020596;28;19921;-85
2021/08/05 04:37:34;;;;;;;;;;;;;;;6.51;100.00;99077.53;5019000;28;20015;-84
2021/08/05 04:40:00;;;;;;;;;;;;;;;6.48;100.00;99072.41;5020077;28;20268;-88
2021/08/05 04:42:25;;;;;;;;;;;;;;;6.37;100.00;99062.28;5019312;28;19925;-88
2021/08/05 04:44:51;;;;;;;;;;;;;;;6.38;100.00;99065.75;5019884;28;19971;-87
2021/08/05 07:45:34;;;;;;;;;;;;;;;5.97;100.00;99034.81;5019382;28;19929;-89
2021/08/05 07:48:00;;;;;;;;;;;;;;;5.84;100.00;99039.63;5022377;28;19947;-87
2021/08/05 07:50:25;;;;;;;;;;;;;;;5.89;100.00;99037.66;5022508;28;20012;-87
2021/08/05 07:52:50;;;;;;;;;;;;;;;5.97;100.00;99040.06;5021708;28;19929;-87
2021/08/05 07:55:16;;;;;;;;;;;;;;;5.96;100.00;99039.19;5021195;28;19929;-87
2021/08/05 07:57:41;;;;;;;;;;;;;;;5.98;100.00;99042.63;5021117;28;20364;-87
2021/08/05 08:00:08;;;;;;;;;;;;;;;5.89;100.00;99042.94;5022718;28;20307;-87
2021/08/05 08:02:33;;;;;;;;;;;;;;;5.77;100.00;99048.59;5005710;28;20285;-87
2021/08/05 08:04:58;;;;;;;;;;;;;;;5.81;100.00;99039.72;5002606;28;19984;-87
2021/08/05 08:07:24;;;;;;;;;;;;;;;5.93;100.00;99041.03;5003985;28;19921;-88
2021/08/05 08:09:49;;;;;;;;;;;;;;;5.88;100.00;99040.34;5022593;28;19984;-89
2021/08/05 08:12:15;;;;;;;;;;;;;;;5.90;100.00;99031.47;5021846;28;19921;-89
2021/08/05 08:14:40;;;;;;;;;;;;;;;5.89;100.00;99032.41;5004386;28;19988;-86
2021/08/05 08:17:05;;;;;;;;;;;;;;;5.89;100.00;99032.41;5004073;28;19930;-86
2021/08/05 08:19:32;;;;;;;;;;;;;;;5.77;100.00;99035.47;5021397;28;19922;-87
2021/08/05 08:21:58;;;;;;;;;;;;;;;5.82;100.00;99036.16;5020981;28;19936;-87
2021/08/05 08:24:24;;;;;;;;;;;;;;;5.87;100.00;99044.75;5020696;28;20293;-86
2021/08/05 08:26:49;;;;;;;;;;;;;;;5.85;100.00;99038.69;5020093;28;19922;-86
2021/08/05 08:29:14;;;;;;;;;;;;;;;5.91;100.00;99035.84;5020984;28;20021;-87
2021/08/05 08:31:40;;;;;;;;;;;;;;;5.90;100.00;99034.09;5021255;28;19921;-86
2021/08/05 08:34:05;;;;;;;;;;;;;;;5.84;100.00;99034.34;5021526;28;19921;-86
2021/08/05 08:36:30;;;;;;;;;;;;;;;5.91;100.00;99037.63;5017515;28;19921;-86
2021/08/05 08:38:58;;;;;;;;;;;;;;;5.95;100.00;99026.06;5017124;28;19921;-87
2021/08/05 08:41:24;;;;;;;;;;;;;;;5.96;100.00;99039.19;5000341;28;19929;-86
2021/08/05 08:43:49;;;;;;;;;;;;;;;5.91;100.00;99032.34;5014344;28;19971;-87
2021/08/05 08:46:21;;;;;;;;;;;;;;;5.85;100.00;99030.78;5014020;28;19926;-87
2021/08/05 08:48:50;;;;;;;;;;;;;;;5.85;100.00;99027.31;5000531;28;19926;-87
2021/08/05 08:51:17;;;;;;;;;;;;;;;5.89;100.00;99040.31;5010506;28;19996;-87
2021/08/05 08:53:43;;;;;;;;;;;;;;;5.85;100.00;99025.53;5020275;28;19932;-87
2021/08/05 08:56:09;;;;;;;;;;;;;;;5.80;100.00;99044.09;5020858;28;19921;-86
2021/08/05 08:58:35;;;;;;;;;;;;;;;5.91;100.00;99038.47;5019813;28;20066;-87
2021/08/05 09:01:00;;;;;;;;;;;;;;;5.89;100.00;99029.78;5020586;28;19979;-87
2021/08/05 09:03:27;;;;;;;;;;;;;;;5.93;100.00;99033.16;5018868;28;20293;-86
2021/08/05 09:05:52;;;;;;;;;;;;;;;5.94;100.00;99027.00;5003614;28;20008;-86
2021/08/05 09:08:18;;;;;;;;;;;;;;;5.88;100.00;99027.22;5016106;28;19964;-86
2021/08/05 09:10:43;;;;;;;;;;;;;;;6.01;100.00;99025.88;5006718;28;19928;-87
2021/08/05 09:13:09;;;;;;;;;;;;;;;5.90;100.00;99028.84;5015467;28;20416;-87
2021/08/05 09:15:38;;;;;;;;;;;;;;;5.94;100.00;99024.38;5013343;28;19952;-87
2021/08/05 09:18:05;;;;;;;;;;;;;;;5.89;100.00;99016.63;5018074;28;20208;-87
2021/08/05 09:20:30;;;;;;;;;;;;;;;6.00;100.00;99018.91;5022557;28;19925;-87
2021/08/05 09:22:56;;;;;;;;;;;;;;;5.90;100.00;99013.06;5017930;28;19933;-87
2021/08/05 09:25:21;;;;;;;;;;;;;;;5.89;100.00;99016.63;5018182;28;20296;-87
2021/08/05 09:27:48;;;;;;;;;;;;;;;5.94;100.00;99012.06;5017045;28;20008;-87
2021/08/05 09:30:33;;;;;;;;;;;;;;;5.93;100.00;99007.72;5020237;28;19937;-87
2021/08/05 09:33:07;;;;;;;;;;;;;;;6.02;100.00;99009.19;5019927;28;19922;-88
2021/08/05 09:35:32;;;;;;;;;;;;;;;6.04;100.00;98995.97;5020129;28;19960;-87
2021/08/05 09:38:14;;;;;;;;;;;;;;;5.81;100.00;99002.91;5019569;28;19921;-88
2021/08/05 09:40:40;;;;;;;;;;;;;;;5.94;100.00;98998.06;5019950;28;20019;-87
2021/08/05 09:43:06;;;;;;;;;;;;;;;5.94;100.00;98992.81;5019574;28;19921;-87
2021/08/05 09:45:35;;;;;;;;;;;;;;;6.07;100.00;98993.25;5018790;28;19928;-87
2021/08/05 09:48:01;;;;;;;;;;;;;;;5.89;100.00;98985.09;5019152;28;19922;-87
2021/08/05 09:50:26;;;;;;;;;;;;;;;5.91;100.00;98985.88;5018130;28;19937;-87
2021/08/05 09:53:05;;;;;;;;;;;;;;;5.87;100.00;98979.03;5019583;28;20284;-87
2021/08/05 09:55:31;;;;;;;;;;;;;;;5.99;100.00;98975.97;5021981;28;19943;-87
2021/08/05 09:57:56;;;;;;;;;;;;;;;5.92;100.00;98973.56;5022335;28;20288;-87
2021/08/05 10:00:22;;;;;;;;;;;;;;;5.89;100.00;98971.94;5022643;28;19924;-87
2021/08/05 10:02:47;;;;;;;;;;;;;;;5.87;100.00;98965.88;5022506;28;19925;-87
2021/08/05 10:05:16;;;;;;;;;;;;;;;5.89;100.00;98968.44;5022475;28;19921;-87
2021/08/05 10:07:42;;;;;;;;;;;;;;;5.99;100.00;98969.84;5023024;28;19933;-87
2021/08/05 10:10:08;;;;;;;;;;;;;;;6.00;100.00;98967.16;5022158;28;19922;-87
2021/08/05 10:12:33;;;;;;;;;;;;;;;5.94;100.00;98967.34;5021579;28;19975;-87
2021/08/05 10:15:04;;;;;;;;;;;;;;;5.94;100.00;98967.34;5022650;28;19929;-86
2021/08/05 10:17:31;;;;;;;;;;;;;;;5.98;100.00;98966.38;5022336;28;19932;-87
2021/08/05 10:19:59;;;;;;;;;;;;;;;5.94;100.00;98967.34;5022181;28;19922;-87
2021/08/05 10:22:25;;;;;;;;;;;;;;;5.94;100.00;98970.00;5021467;28;19931;-87
2021/08/05 10:24:51;;;;;;;;;;;;;;;5.92;100.00;98966.56;5021289;28;19948;-87
2021/08/05 10:27:18;;;;;;;;;;;;;;;5.92;100.00;98970.94;5022179;28;19925;-87
2021/08/05 10:29:43;;;;;;;;;;;;;;;5.98;100.00;98962.88;5021482;28;19934;-86
2021/08/05 10:32:10;;;;;;;;;;;;;;;6.00;100.00;98966.31;5021025;28;19925;-87
2021/08/05 10:34:36;;;;;;;;;;;;;;;5.95;100.00;98957.69;5013837;28;19921;-86
2021/08/05 10:37:02;;;;;;;;;;;;;;;5.98;100.00;98953.22;5002141;28;20317;-86
2021/08/05 10:39:29;;;;;;;;;;;;;;;5.90;100.00;98960.47;5010121;28;19931;-87
2021/08/05 10:41:55;;;;;;;;;;;;;;;6.06;100.00;98952.91;5021624;28;19953;-88
2021/08/05 10:44:21;;;;;;;;;;;;;;;5.98;100.00;98949.72;5018028;28;19997;-87
2021/08/05 10:46:47;;;;;;;;;;;;;;;5.97;100.00;98940.13;5022669;28;19957;-87
2021/08/05 10:49:13;;;;;;;;;;;;;;;6.08;100.00;98948.47;5017914;28;20278;-87
2021/08/05 10:51:41;;;;;;;;;;;;;;;6.05;100.00;98935.44;5001509;28;19964;-86
2021/08/05 10:54:10;;;;;;;;;;;;;;;6.12;100.00;98930.78;5013177;28;19986;-86
2021/08/05 10:56:35;;;;;;;;;;;;;;;6.02;100.00;98932.91;5021556;28;19921;-87
2021/08/05 10:59:07;;;;;;;;;;;;;;;5.97;100.00;98927.84;5020838;28;19979;-87
2021/08/05 11:01:47;;;;;;;;;;;;;;;6.15;100.00;98923.63;5021059;28;20316;-86
2021/08/05 11:04:31;;;;;;;;;;;;;;;6.09;100.00;98928.28;5002020;28;20033;-86
2021/08/05 11:07:16;;;;;;;;;;;;;;;6.09;100.00;98928.28;5013074;28;19921;-87
2021/08/05 11:09:42;;;;;;;;;;;;;;;5.94;100.00;98932.31;5022426;28;19948;-87
2021/08/05 11:12:29;;;;;;;;;;;;;;;5.94;100.00;98925.28;5022127;28;19986;-87
2021/08/05 11:14:54;;;;;;;;;;;;;;;5.97;100.00;98921.72;5021085;28;19972;-88
2021/08/05 11:17:19;;;;;;;;;;;;;;;6.05;100.00;98926.66;5021269;28;20174;-86
2021/08/05 11:19:45;;;;;;;;;;;;;;;6.02;100.00;98922.41;5021479;28;19932;-87
2021/08/05 11:22:43;;;;;;;;;;;;;;;6.02;100.00;98929.44;5020487;28;19933;-88
2021/08/05 11:25:08;;;;;;;;;;;;;;;6.03;100.00;98929.38;4988306;28;19921;-87
2021/08/05 11:27:42;;;;;;;;;;;;;;;5.97;100.00;98919.09;5020530;28;19928;-88
2021/08/05 11:30:26;;;;;;;;;;;;;;;5.97;100.00;98921.72;5019753;28;20256;-87
2021/08/05 11:32:51;;;;;;;;;;;;;;;5.97;100.00;98913.84;5001341;28;19922;-88
2021/08/05 11:35:20;;;;;;;;;;;;;;;5.94;100.00;98909.50;5018727;28;20316;-87
2021/08/05 11:38:07;;;;;;;;;;;;;;;5.90;100.00;98907.91;5020132;28;20200;-87
2021/08/05 11:40:42;;;;;;;;;;;;;;;5.89;100.00;98907.94;5021027;28;20280;-87
2021/08/05 11:43:17;;;;;;;;;;;;;;;5.96;100.00;98904.19;5019984;28;20280;-88
2021/08/05 11:46:03;;;;;;;;;;;;;;;5.94;100.00;98899.00;5020653;28;20374;-88
2021/08/05 11:48:38;;;;;;;;;;;;;;;5.95;100.00;98898.09;5013462;28;20356;-88
2021/08/05 11:51:03;;;;;;;;;;;;;;;5.98;100.00;98895.38;5018706;28;19948;-87
2021/08/05 11:53:31;;;;;;;;;;;;;;;5.93;100.00;98893.78;5019925;28;20297;-87
2021/08/05 11:55:57;;;;;;;;;;;;;;;5.97;100.00;98891.03;5020370;28;19926;-88
2021/08/05 11:58:25;;;;;;;;;;;;;;;5.95;100.00;98882.31;5021032;28;19932;-87
2021/08/05 12:00:51;;;;;;;;;;;;;;;5.93;100.00;98885.91;5021270;28;19937;-87
2021/08/05 12:03:16;;;;;;;;;;;;;;;5.91;100.00;98878.06;5021513;28;20330;-85
2021/08/05 12:05:46;;;;;;;;;;;;;;;5.91;100.00;98885.97;5020485;28;19922;-86
2021/08/05 12:08:12;;;;;;;;;;;;;;;5.89;100.00;98885.16;5019913;28;19983;-87
2021/08/05 12:10:40;;;;;;;;;;;;;;;5.86;100.00;98879.19;5020609;28;19984;-87
2021/08/05 12:13:13;;;;;;;;;;;;;;;5.86;100.00;98879.19;5021281;28;20299;-88
2021/08/05 12:15:40;;;;;;;;;;;;;;;5.91;100.00;98877.22;5020284;28;19921;-88
2021/08/05 12:18:10;;;;;;;;;;;;;;;5.85;100.00;98878.31;5017172;28;20020;-86
2021/08/05 12:20:35;;;;;;;;;;;;;;;5.82;100.00;98878.41;5008012;28;19929;-87
2021/08/05 12:23:03;;;;;;;;;;;;;;;5.85;100.00;98874.81;5021757;28;19921;-85
2021/08/05 12:25:30;;;;;;;;;;;;;;;5.95;100.00;98869.16;5020039;28;19984;-85
2021/08/05 12:27:59;;;;;;;;;;;;;;;5.95;100.00;98866.53;5020782;28;19921;-86
2021/08/05 12:30:33;;;;;;;;;;;;;;;5.93;100.00;98870.97;5020981;28;20333;-86
2021/08/05 12:33:00;;;;;;;;;;;;;;;5.88;100.00;98865.03;5019769;28;19932;-87
2021/08/05 12:35:26;;;;;;;;;;;;;;;5.91;100.00;98864.91;5021615;28;20212;-86
2021/08/05 12:38:17;;;;;;;;;;;;;;;5.93;100.00;98857.81;5020416;28;20008;-88
2021/08/05 12:40:45;;;;;;;;;;;;;;;5.91;100.00;98850.94;5018371;28;19937;-86
2021/08/05 12:43:12;;;;;;;;;;;;;;;5.91;100.00;98851.78;5021224;28;19921;-87
2021/08/05 12:45:43;;;;;;;;;;;;;;;5.95;100.00;98855.13;5020477;28;20021;-87
2021/08/05 12:48:09;;;;;;;;;;;;;;;5.93;100.00;98851.72;5018028;28;19922;-86
2021/08/05 12:50:39;;;;;;;;;;;;;;;5.94;100.00;98853.44;5001470;28;19999;-88
2021/08/05 12:53:04;;;;;;;;;;;;;;;5.90;100.00;98843.94;5000045;28;19944;-89
2021/08/05 12:55:45;;;;;;;;;;;;;;;5.93;100.00;98833.31;5004891;28;20297;-88
2021/08/05 12:58:15;;;;;;;;;;;;;;;5.92;100.00;98836.84;5019573;28;19928;-87
2021/08/05 13:00:41;;;;;;;;;;;;;;;5.92;100.00;98835.09;5020128;28;19980;-88
2021/08/05 13:03:06;;;;;;;;;;;;;;;5.91;100.00;98830.75;5019588;28;19925;-87
2021/08/05 13:05:33;;;;;;;;;;;;;;;5.86;100.00;98832.69;5020400;28;19963;-88
2021/08/05 13:07:58;;;;;;;;;;;;;;;5.91;100.00;98825.47;5020170;28;19934;-85
2021/08/05 13:10:40;;;;;;;;;;;;;;;5.93;100.00;98820.16;5020216;28;19921;-88
2021/08/05 13:13:06;;;;;;;;;;;;;;;5.91;100.00;98820.22;5019191;28;19999;-88
2021/08/05 13:15:32;;;;;;;;;;;;;;;5.90;100.00;98822.91;5018971;28;19953;-88
2021/08/05 13:18:01;;;;;;;;;;;;;;;5.96;100.00;98817.41;5019661;28;20004;-87
2021/08/05 13:20:28;;;;;;;;;;;;;;;6.00;100.00;98812.00;5019670;28;19940;-88
2021/08/05 13:22:53;;;;;;;;;;;;;;;5.99;100.00;98817.31;5019157;28;19921;-88
2021/08/05 13:25:20;;;;;;;;;;;;;;;5.98;100.00;98811.22;5019834;28;19921;-89
2021/08/05 13:28:04;;;;;;;;;;;;;;;5.89;100.00;98822.06;5019687;28;19922;-88
2021/08/05 13:30:29;;;;;;;;;;;;;;;5.95;100.00;98808.69;5019355;28;20044;-87
2021/08/05 13:32:55;;;;;;;;;;;;;;;5.97;100.00;98804.25;5019465;28;19957;-87
2021/08/05 13:35:20;;;;;;;;;;;;;;;5.88;100.00;98809.81;5019659;28;19921;-87
2021/08/05 13:38:03;;;;;;;;;;;;;;;5.93;100.00;98796.50;5019935;28;20351;-87
2021/08/05 13:40:28;;;;;;;;;;;;;;;5.92;100.00;98797.41;5019508;28;19932;-86
2021/08/05 13:42:54;;;;;;;;;;;;;;;5.91;100.00;98793.94;5018804;28;19921;-87
2021/08/05 13:45:19;;;;;;;;;;;;;;;6.11;100.00;98787.91;5019190;28;19922;-88
2021/08/05 13:47:46;;;;;;;;;;;;;;;5.99;100.00;98785.78;5019111;28;20317;-87
2021/08/05 13:50:18;;;;;;;;;;;;;;;5.92;100.00;98790.41;5020023;28;19921;-88
2021/08/05 13:52:44;;;;;;;;;;;;;;;5.88;100.00;98788.78;5019604;28;20007;-87
2021/08/05 13:55:10;;;;;;;;;;;;;;;5.99;100.00;98791.88;5019309;28;20224;-87
2021/08/05 13:57:36;;;;;;;;;;;;;;;5.97;100.00;98788.47;5019548;28;19932;-87
2021/08/05 14:00:01;;;;;;;;;;;;;;;5.94;100.00;98792.97;5018826;28;19922;-88
2021/08/05 14:02:27;;;;;;;;;;;;;;;6.03;100.00;98791.75;5019803;28;20021;-88
2021/08/05 14:04:52;;;;;;;;;;;;;;;6.07;100.00;98794.22;5018815;28;19922;-88
2021/08/05 14:07:17;;;;;;;;;;;;;;;6.05;100.00;98790.78;5019345;28;19931;-88
2021/08/05 14:09:43;;;;;;;;;;;;;;;5.96;100.00;98783.22;5018639;28;19922;-88
2021/08/05 14:12:10;;;;;;;;;;;;;;;6.05;100.00;98796.06;5025975;28;19921;-88
2021/08/05 14:14:39;;;;;;;;;;;;;;;5.95;100.00;98798.16;5021755;28;19932;-87
2021/08/05 14:17:04;;;;;;;;;;;;;;;5.96;100.00;98789.38;5008278;28;20013;-86
2021/08/05 14:19:30;;;;;;;;;;;;;;;5.95;100.00;98792.91;5018578;28;20304;-87
2021/08/05 14:21:55;;;;;;;;;;;;;;;5.95;100.00;98792.03;5018334;28;19937;-87
2021/08/05 14:24:20;;;;;;;;;;;;;;;5.97;100.00;98782.34;5019016;28;19933;-88
2021/08/05 14:26:50;;;;;;;;;;;;;;;6.04;100.00;98790.84;5019718;28;20018;-87
2021/08/05 14:29:16;;;;;;;;;;;;;;;6.02;100.00;98787.44;5018626;28;19922;-87
2021/08/05 14:31:44;;;;;;;;;;;;;;;6.09;100.00;98775.72;5018622;28;20308;-87
2021/08/05 14:34:09;;;;;;;;;;;;;;;6.10;100.00;98777.47;5019009;28;20008;-87
2021/08/05 14:36:35;;;;;;;;;;;;;;;6.04;100.00;98781.19;5017207;28;19987;-87
2021/08/05 14:39:01;;;;;;;;;;;;;;;6.01;100.00;98781.31;5018054;28;19929;-86
2021/08/05 14:41:30;;;;;;;;;;;;;;;5.98;100.00;98771.78;5020169;28;19968;-86
2021/08/05 14:43:55;;;;;;;;;;;;;;;6.06;100.00;98775.84;5021710;28;20313;-86
2021/08/05 14:46:20;;;;;;;;;;;;;;;6.05;100.00;98769.75;5022673;28;19928;-88
2021/08/05 14:48:46;;;;;;;;;;;;;;;6.03;100.00;98771.59;5023055;28;19925;-87
2021/08/05 14:51:12;;;;;;;;;;;;;;;5.99;100.00;98770.84;5022285;28;20059;-87
2021/08/05 14:53:37;;;;;;;;;;;;;;;6.09;100.00;98770.47;5021636;28;19932;-88
2021/08/05 14:56:03;;;;;;;;;;;;;;;6.12;100.00;98770.34;5021713;28;19956;-87
2021/08/05 14:58:28;;;;;;;;;;;;;;;6.03;100.00;98770.72;5020936;28;19921;-86
2021/08/05 15:00:54;;;;;;;;;;;;;;;6.09;100.00;98770.47;5021571;28;19936;-86
2021/08/05 15:03:19;;;;;;;;;;;;;;;6.07;100.00;98765.28;5022230;28;19930;-87
2021/08/05 15:05:45;;;;;;;;;;;;;;;6.01;100.00;98762.88;5022332;28;19929;-88
2021/08/05 15:08:10;;;;;;;;;;;;;;;5.99;100.00;98762.09;5020682;28;19971;-89
2021/08/05 15:10:35;;;;;;;;;;;;;;;6.09;100.00;98760.81;5020992;28;19929;-88
2021/08/05 15:13:00;;;;;;;;;;;;;;;6.13;100.00;98761.56;5020259;28;20012;-88
2021/08/05 15:15:26;;;;;;;;;;;;;;;6.06;100.00;98755.66;5019085;28;19926;-88
2021/08/05 15:17:51;;;;;;;;;;;;;;;5.97;100.00;98762.16;5019734;28;19917;-87
2021/08/05 15:20:17;;;;;;;;;;;;;;;6.03;100.00;98760.19;5021195;28;20292;-88
2021/08/05 15:22:43;;;;;;;;;;;;;;;6.08;100.00;98761.75;5021584;28;19925;-86
2021/08/05 15:25:08;;;;;;;;;;;;;;;6.05;100.00;98756.59;5020655;28;19921;-87
2021/08/05 15:27:35;;;;;;;;;;;;;;;6.15;100.00;98754.44;5019624;28;19922;-87
2021/08/05 15:30:00;;;;;;;;;;;;;;;6.10;100.00;98756.41;5021050;28;19940;-87
2021/08/05 15:32:26;;;;;;;;;;;;;;;6.13;100.00;98754.50;5018460;28;19921;-87
2021/08/05 15:34:51;;;;;;;;;;;;;;;6.22;100.00;98744.53;5017887;28;19948;-87
2021/08/05 15:37:18;;;;;;;;;;;;;;;6.16;100.00;98749.13;5020094;28;19984;-87
2021/08/05 15:39:44;;;;;;;;;;;;;;;6.17;100.00;98736.81;5021153;28;19932;-89
2021/08/05 15:42:10;;;;;;;;;;;;;;;6.08;100.00;98737.19;5021288;28;19926;-86
2021/08/05 15:44:36;;;;;;;;;;;;;;;6.23;100.00;98738.34;5020964;28;19987;-88
2021/08/05 15:47:01;;;;;;;;;;;;;;;6.20;100.00;98722.69;5021029;28;19921;-87
2021/08/05 15:49:27;;;;;;;;;;;;;;;6.11;100.00;98719.53;5021131;28;19936;-88
2021/08/05 15:51:52;;;;;;;;;;;;;;;6.10;100.00;98711.72;5020686;28;20363;-87
2021/08/05 15:54:18;;;;;;;;;;;;;;;6.15;100.00;98707.94;5021415;28;19921;-87
2021/08/05 15:56:43;;;;;;;;;;;;;;;6.14;100.00;98710.63;5020405;28;19929;-87
2021/08/05 15:59:11;;;;;;;;;;;;;;;6.18;100.00;98704.34;5020613;28;19925;-88
2021/08/05 16:01:36;;;;;;;;;;;;;;;6.17;100.00;98706.13;5019538;28;20016;-88
2021/08/05 16:04:02;;;;;;;;;;;;;;;6.06;100.00;98710.09;5020019;28;20009;-89
2021/08/05 16:06:30;;;;;;;;;;;;;;;6.11;100.00;98710.75;5019209;28;20213;-88
2021/08/05 16:08:56;;;;;;;;;;;;;;;6.09;100.00;98707.34;5019524;28;19921;-88
2021/08/05 16:11:21;;;;;;;;;;;;;;;6.07;100.00;98703.94;5020015;28;19932;-87
2021/08/05 16:13:46;;;;;;;;;;;;;;;6.14;100.00;98694.84;5019182;28;19925;-88
2021/08/05 16:16:15;;;;;;;;;;;;;;;6.11;100.00;98701.13;5020527;28;19922;-88
2021/08/05 16:18:43;;;;;;;;;;;;;;;6.16;100.00;98704.41;5018912;28;19921;-87
2021/08/05 16:21:11;;;;;;;;;;;;;;;6.11;100.00;98706.38;5019841;28;19972;-87
2021/08/05 16:23:37;;;;;;;;;;;;;;;6.14;100.00;98702.75;5018970;28;19937;-88
2021/08/05 16:26:05;;;;;;;;;;;;;;;6.14;100.00;98700.13;5019562;28;19921;-88
2021/08/05 16:28:31;;;;;;;;;;;;;;;6.16;100.00;98693.03;5018990;28;19921;-88
2021/08/05 16:30:57;;;;;;;;;;;;;;;6.20;100.00;98699.03;5019449;28;19937;-87
2021/08/05 16:33:22;;;;;;;;;;;;;;;6.20;100.00;98704.28;5018664;28;19922;-87
2021/08/05 16:35:47;;;;;;;;;;;;;;;6.15;100.00;98701.84;5019154;28;19932;-88
2021/08/05 16:38:13;;;;;;;;;;;;;;;6.17;100.00;98702.63;5018147;28;20297;-88
2021/08/05 16:40:39;;;;;;;;;;;;;;;6.19;100.00;98698.19;5018499;28;20039;-87
2021/08/05 16:43:04;;;;;;;;;;;;;;;6.28;100.00;98710.06;5019570;28;20021;-88
2021/08/05 16:45:31;;;;;;;;;;;;;;;6.24;100.00;98711.09;5018875;28;19922;-87
2021/08/05 16:47:56;;;;;;;;;;;;;;;6.29;100.00;98715.25;5019859;28;19926;-88
2021/08/05 16:50:24;;;;;;;;;;;;;;;6.26;100.00;98718.03;5020154;28;20024;-88
2021/08/05 16:52:52;;;;;;;;;;;;;;;6.22;100.00;98718.22;5017582;28;19922;-85
2021/08/05 16:55:18;;;;;;;;;;;;;;;6.23;100.00;98715.53;5018996;28;19925;-86
2021/08/05 16:57:46;;;;;;;;;;;;;;;6.23;100.00;98714.69;5019297;28;19921;-87
2021/08/05 17:00:16;;;;;;;;;;;;;;;6.28;100.00;98710.91;5027303;28;19922;-87
2021/08/05 17:02:44;;;;;;;;;;;;;;;6.20;100.00;98710.38;5018302;28;19972;-88
2021/08/05 17:05:10;;;;;;;;;;;;;;;6.23;100.00;98715.53;5018560;28;20316;-88
2021/08/05 17:07:39;;;;;;;;;;;;;;;6.31;100.00;98707.31;5018453;28;19936;-87
2021/08/05 17:10:06;;;;;;;;;;;;;;;6.24;100.00;98719.88;5019117;28;19932;-87
2021/08/05 17:12:32;;;;;;;;;;;;;;;6.18;100.00;98717.50;5018017;28;19945;-87
2021/08/05 17:15:00;;;;;;;;;;;;;;;6.28;100.00;98718.81;5013911;28;19995;-86
2021/08/05 17:17:27;;;;;;;;;;;;;;;6.20;100.00;98720.91;5017950;28;19922;-87
2021/08/05 17:19:55;;;;;;;;;;;;;;;6.25;100.00;98725.97;5018756;28;20301;-86
2021/08/05 17:22:25;;;;;;;;;;;;;;;6.27;100.00;98714.50;5019550;28;19933;-87
2021/08/05 17:25:10;;;;;;;;;;;;;;;6.31;100.00;98720.47;5016233;28;20815;-86
2021/08/05 17:27:37;;;;;;;;;;;;;;;6.28;100.00;98720.59;5017684;28;20304;-86
2021/08/05 17:30:09;;;;;;;;;;;;;;;6.26;100.00;98718.03;5017138;28;19921;-87
2021/08/05 17:32:35;;;;;;;;;;;;;;;6.22;100.00;98710.31;5023498;28;20005;-86
2021/08/05 17:35:04;;;;;;;;;;;;;;;6.30;100.00;98709.09;5018596;28;20004;-87
2021/08/05 17:37:29;;;;;;;;;;;;;;;6.30;100.00;98724.00;5025422;28;19928;-90
2021/08/05 17:39:55;;;;;;;;;;;;;;;6.27;100.00;98722.38;5025050;28;20004;-87
2021/08/05 17:42:20;;;;;;;;;;;;;;;6.30;100.00;98731.91;5016340;28;19917;-88
2021/08/05 17:44:46;;;;;;;;;;;;;;;6.23;100.00;98728.69;5018060;28;19925;-86
2021/08/05 17:47:11;;;;;;;;;;;;;;;6.30;100.00;98731.91;5005816;28;19921;-88
2021/08/05 17:49:38;;;;;;;;;;;;;;;6.37;100.00;98725.47;5013949;28;20016;-88
2021/08/05 17:52:04;;;;;;;;;;;;;;;6.33;100.00;98737.91;5017826;28;19932;-88
2021/08/05 17:54:29;;;;;;;;;;;;;;;6.41;100.00;98734.09;5015006;28;19928;-87
2021/08/05 17:56:54;;;;;;;;;;;;;;;6.45;100.00;98743.56;5021196;28;19921;-88
2021/08/05 17:59:20;;;;;;;;;;;;;;;6.39;100.00;98743.81;5022669;28;19925;-88
2021/08/05 18:01:45;;;;;;;;;;;;;;;6.31;100.00;98745.00;5019810;28;19971;-88
2021/08/05 18:04:12;;;;;;;;;;;;;;;6.39;100.00;98746.47;5021182;28;19941;-86
2021/08/05 18:06:38;;;;;;;;;;;;;;;6.28;100.00;98745.13;5017385;28;20002;-87
2021/08/05 18:09:04;;;;;;;;;;;;;;;6.33;100.00;98740.53;5017021;28;19925;-87
2021/08/05 18:11:30;;;;;;;;;;;;;;;6.42;100.00;98741.06;5013689;28;19929;-87
2021/08/05 18:13:55;;;;;;;;;;;;;;;6.35;100.00;98736.06;5019099;28;19925;-88
2021/08/05 18:16:22;;;;;;;;;;;;;;;6.41;100.00;98739.34;5020658;28;19952;-85
2021/08/05 18:18:52;;;;;;;;;;;;;;;6.35;100.00;98738.69;5015255;28;19934;-85
2021/08/05 18:21:19;;;;;;;;;;;;;;;6.43;100.00;98729.59;5021163;28;19917;-87
2021/08/05 18:23:44;;;;;;;;;;;;;;;6.37;100.00;98730.72;5021147;28;19995;-87
2021/08/05 18:26:10;;;;;;;;;;;;;;;6.37;100.00;98741.25;5021936;28;20285;-87
2021/08/05 18:28:35;;;;;;;;;;;;;;;6.40;100.00;98758.69;5028594;28;20265;-87
2021/08/05 18:31:01;;;;;;;;;;;;;;;6.41;100.00;98755.13;5020562;28;19921;-87
2021/08/05 18:33:27;;;;;;;;;;;;;;;6.50;100.00;98766.13;5020310;28;19922;-90
2021/08/05 18:35:52;;;;;;;;;;;;;;;6.45;100.00;98765.47;5024260;28;19921;-87
2021/08/05 18:38:18;;;;;;;;;;;;;;;6.43;100.00;98774.34;5019709;28;19990;-87
2021/08/05 18:40:43;;;;;;;;;;;;;;;6.33;100.00;98761.59;5020895;28;19921;-87
2021/08/05 18:43:08;;;;;;;;;;;;;;;6.25;100.00;98762.81;5023328;28;20668;-87
2021/08/05 18:45:34;;;;;;;;;;;;;;;6.31;100.00;98752.88;5032158;28;19937;-86
2021/08/05 18:47:59;;;;;;;;;;;;;;;6.32;100.00;98746.72;5021306;28;19948;-87
2021/08/05 18:50:25;;;;;;;;;;;;;;;6.30;100.00;98745.06;5020121;28;19943;-87
2021/08/05 18:52:51;;;;;;;;;;;;;;;6.21;100.00;98735.78;5021309;28;19921;-87
2021/08/05 18:55:16;;;;;;;;;;;;;;;6.18;100.00;98739.38;5020194;28;19917;-87
2021/08/05 18:57:42;;;;;;;;;;;;;;;6.25;100.00;98742.59;5023902;28;20016;-88
2021/08/05 19:00:07;;;;;;;;;;;;;;;6.21;100.00;98740.16;5020829;28;20307;-87
2021/08/05 19:02:33;;;;;;;;;;;;;;;6.25;100.00;98739.97;5020515;28;20256;-88
2021/08/05 19:04:58;;;;;;;;;;;;;;;6.31;100.00;98729.19;5020530;28;20296;-87